• Join FlightAware (Why Join?)
  • Login
  • US Flag 
06:53AM EDT


 

Airport Tracker/Info


-or-


 

Live Flight TrackerFlight Track Log ✈ N6569M ✈ 12-May-2013 ✈ 50R - KIWS

Flight Track Log - Related Links

Times and Time Zones

All times are in EDT time to prevent confusion due to time zone crossing. See the N6569M flight status page for this flight to view local times or setup timezone preferences in your user account.

Time Position Orientation Groundspeed Altitude Reporting Facility
EDT Latitude Longitude Course Direction KTS MPH feet Rate Location/Type
07:34PM 29.7636 -97.1133 91° East 117 135 5,500  Level Houston Center
07:34PM 29.7639 -97.0894 89° East 120 138 5,600  Climbing Houston Center
07:36PM 29.7608 -97.0489 95° East 123 142 5,600  Level Houston Center
07:37PM 29.7575 -97.0083 95° East 118 136 5,600 -60 Level Houston Center
07:38PM 29.7608 -96.9694 84° East 118 136 5,500 -60 Descending Houston Center
07:39PM 29.8480 -97.4277 91° East  Level Estimated
07:39PM 29.7664 -96.9328 80° East 119 137 5,500  Level Houston Center
07:40PM 29.7697 -96.8964 84° East 118 136 5,500  Level Houston Center
07:41PM 29.7708 -96.8603 88° East 120 138 5,500  Level Houston Center
07:42PM 29.7739 -96.8192 85° East 121 139 5,500  Level Houston Center
07:43PM 29.7769 -96.7781 85° East 123 142 5,500 -60 Level Houston Center
07:44PM 29.7758 -96.7394 92° East 124 143 5,400 -60 Descending Houston Center
07:45PM 29.7767 -96.6986 89° East 123 142 5,400  Level Houston Center
07:46PM 29.7756 -96.6578 92° East 124 143 5,500  Climbing Houston Center
07:47PM 29.7767 -96.6192 88° East 123 142 5,400 -60 Descending Houston Center
07:48PM 29.7775 -96.5783 89° East 124 143 5,400  Level Houston Center
07:49PM 29.7803 -96.5372 86° East 123 142 5,400  Level Houston Center
07:50PM 29.7814 -96.4986 88° East 124 143 5,500 60 Climbing Houston Center
07:51PM 29.7844 -96.4597 85° East 118 136 5,600  Climbing Houston Center
07:52PM 29.7850 -96.4189 89° East 126 145 5,600 -60 Level Houston Center
07:53PM 29.7858 -96.3778 89° East 130 150 5,500  Descending Houston Center
07:54PM 29.7864 -96.3344 89° East 127 146 5,600  Climbing Houston Center
07:55PM 29.7872 -96.2933 89° East 125 144 5,500 -120 Descending Houston Center
07:56PM 29.7881 -96.2550 89° East 125 144 5,400  Descending Houston Center
07:57PM 29.7931 -96.2133 82° East 123 142 5,500 -60 Climbing Houston Center
07:58PM 29.8000 -96.1742 78° East 128 147 5,300 -360 Descending Houston Center
07:59PM 29.8003 -96.1283 90° East 140 161 4,800 -480 Descending Houston Center
08:00PM 29.8006 -96.0828 90° East 141 162 4,400 -480 Descending Houston Center
08:01PM 29.8031 -96.0367 86° East 138 159 3,900 -480 Descending Houston Center
08:02PM 29.8033 -95.9933 90° East 140 161 3,500 -420 Descending Houston Center
08:03PM 29.8058 -95.9472 86° East 138 159 3,100 -420 Descending Houston Center
08:04PM 29.8083 -95.9036 86° East 138 159 2,700 -420 Descending Houston Center